バミューダ国際空港の過去48時間の天気

バミューダ国際空港 (Bermuda)

現在時刻: 2/21 00:01 AST (2/21 04:01 UTC) 以下の時間は現地時間です。

過去48時間のMETAR気象情報
時間 風向 風速(m/s) 視程 気温(℃) 湿度(%) 気圧(hPa) 天気現象
20 23:55 東南東 7 10km以上 19 94 1015 弱い霧雨
20 23:33 7 10km以上 19 94 1016
20 22:55 8 8000m 18 94 1017 弱い霧雨 もや
20 21:55 7 10km以上 18 88 1018
20 20:55 東北東 7 10km以上 18 88 1019
20 19:55 東北東 7 10km以上 18 88 1019
20 18:55 東北東 7 10km以上 18 88 1019
20 17:55 北東 8 9000m 17 94 1019 弱い霧雨 もや
20 17:37 北東 7 6000m 18 88 1019 弱い雨 弱い霧雨 もや
20 17:19 北東 7 4000m 18 94 1020 弱い雨 弱い霧雨 もや
20 16:55 北東 7 9000m - - 1019 弱い霧雨 もや
20 15:55 北北東 7 10km以上 18 94 1019
TXKF 210355Z 11014KT 9999 -DZ SCT009 BKN018 OVC035 19/18 Q1015
TXKF 210333Z 10013KT 9999 SCT008 BKN013 OVC048 19/18 Q1016
TXKF 210255Z 10015KT 8000 -DZ BR BKN007 BKN016 OVC056 18/17 Q1017
TXKF 210155Z 08014KT 9999 BKN009 OVC021 18/16 Q1018
TXKF 210055Z 07014KT 9999 BKN009 OVC035 18/16 Q1019
TXKF 202355Z 07014KT 9999 BKN009 BKN042 OVC070 18/16 Q1019
TXKF 202255Z 06014KT 9999 BKN009 BKN048 OVC072 18/16 Q1019
TXKF 202155Z 04015KT 9000 -DZ BR BKN009 BKN019 OVC032 17/16 Q1019
TXKF 202137Z 04013KT 340V060 6000 -RADZ BR BKN009 BKN020 OVC030 18/16 Q1019
TXKF 202119Z 04014KT 4000 -RADZ BR BKN008 BKN020 OVC027 18/17 Q1020
TXKF 202055Z 04014KT 9000 -DZ BR BKN007 BKN020 OVC036 Q1019
TXKF 201955Z 03013KT 9999 BKN007 BKN026 OVC040 18/17 Q1019